Time;durP1;ratioP1;P1;durP2;ratioP2;P2;SDS_P1;SDS_P2;PMS_P1;PMS_P2;Temp;Humidity;BMP_temperature;BMP_pressure;BME280_temperature;BME280_humidity;BME280_pressure;Samples;Min_cycle;Max_cycle;Signal;HPM_P1;HPM_P2
2021/05/13 00:02:17;;;;;;;8.40;3.92;;;;;;;;;;5110471;28;20502;-69
2021/05/13 00:06:12;;;;;;;6.60;3.45;;;;;;;;;;5110371;27;20172;-68
2021/05/13 00:08:38;;;;;;;10.27;3.45;;;;;;;;;;5108753;28;20028;-69
2021/05/13 00:11:06;;;;;;;7.22;3.78;;;;;;;;;;5110271;28;20016;-69
2021/05/13 00:13:45;;;;;;;8.27;4.30;;;;;;;;;;5110563;27;20381;-68
2021/05/13 00:17:45;;;;;;;5.78;3.53;;;;;;;;;;5110354;27;20392;-69
2021/05/13 00:20:13;;;;;;;6.97;3.78;;;;;;;;;;5110441;28;20028;-69
2021/05/13 00:24:00;;;;;;;7.80;3.42;;;;;;;;;;5110558;27;20384;-69
2021/05/13 00:26:40;;;;;;;7.05;3.20;;;;;;;;;;5110550;28;20058;-69
2021/05/13 00:29:07;;;;;;;10.00;5.25;;;;;;;;;;5110120;28;20012;-69
2021/05/13 00:32:44;;;;;;;9.50;3.47;;;;;;;;;;5110488;27;20957;-69
2021/05/13 00:35:14;;;;;;;7.65;3.75;;;;;;;;;;5108880;28;20053;-69
2021/05/13 00:37:41;;;;;;;6.57;3.38;;;;;;;;;;5109183;28;20032;-69
2021/05/13 00:40:08;;;;;;;6.25;3.20;;;;;;;;;;5110324;28;20031;-69
2021/05/13 00:43:03;;;;;;;5.30;2.80;;;;;;;;;;5110644;27;20381;-69
2021/05/13 00:45:30;;;;;;;8.07;4.55;;;;;;;;;;5109334;28;20024;-69
2021/05/13 00:48:21;;;;;;;7.20;3.50;;;;;;;;;;5110454;27;20438;-70
2021/05/13 00:50:47;;;;;;;7.88;3.47;;;;;;;;;;5108840;28;20020;-69
2021/05/13 00:53:13;;;;;;;5.65;3.53;;;;;;;;;;5110434;28;20015;-69
2021/05/13 00:57:50;;;;;;;8.50;3.63;;;;;;;;;;5110221;27;20888;-69
2021/05/13 01:03:02;;;;;;;6.95;4.10;;;;;;;;;;5110763;28;20116;-69
2021/05/13 01:05:29;;;;;;;5.28;3.38;;;;;;;;;;5109318;28;20388;-69
2021/05/13 01:07:56;;;;;;;5.45;2.90;;;;;;;;;;5110337;28;20016;-69
2021/05/13 01:10:34;;;;;;;5.53;3.30;;;;;;;;;;5110165;27;20888;-69
2021/05/13 01:13:05;;;;;;;6.78;3.83;;;;;;;;;;5110336;28;20066;-69
2021/05/13 01:18:26;;;;;;;10.63;4.05;;;;;;;;;;5109993;28;20024;-69
2021/05/13 01:20:51;;;;;;;6.15;3.45;;;;;;;;;;5109986;28;20043;-69
2021/05/13 01:23:18;;;;;;;6.00;3.42;;;;;;;;;;5108966;28;20046;-70
2021/05/13 01:27:47;;;;;;;9.18;4.03;;;;;;;;;;5110506;27;20392;-68
2021/05/13 01:30:15;;;;;;;8.65;3.28;;;;;;;;;;5110335;28;20427;-69
2021/05/13 01:34:06;;;;;;;5.25;3.28;;;;;;;;;;5110393;27;20896;-69
2021/05/13 01:36:33;;;;;;;5.65;2.67;;;;;;;;;;5109183;28;20078;-69
2021/05/13 01:40:15;;;;;;;7.15;3.53;;;;;;;;;;5110117;27;20373;-69
2021/05/13 01:42:41;;;;;;;6.72;3.72;;;;;;;;;;5110442;28;20027;-69
2021/05/13 01:46:26;;;;;;;4.75;2.65;;;;;;;;;;5130746;27;20168;-69
2021/05/13 01:48:52;;;;;;;6.15;2.90;;;;;;;;;;5110455;28;20067;-69
2021/05/13 01:51:19;;;;;;;6.15;2.97;;;;;;;;;;5110369;28;20057;-69
2021/05/13 01:53:46;;;;;;;6.82;2.97;;;;;;;;;;5109925;28;20375;-69
2021/05/13 01:58:21;;;;;;;4.40;2.42;;;;;;;;;;5110426;27;20385;-69
2021/05/13 02:00:48;;;;;;;9.02;2.85;;;;;;;;;;5108692;28;20036;-69
2021/05/13 02:03:14;;;;;;;7.47;3.13;;;;;;;;;;5110362;28;20379;-68
2021/05/13 02:07:17;;;;;;;5.05;2.55;;;;;;;;;;5110135;27;20377;-68
2021/05/13 02:11:32;;;;;;;6.00;3.35;;;;;;;;;;5110423;27;20373;-69
2021/05/13 02:13:58;;;;;;;5.07;2.70;;;;;;;;;;5110058;28;20111;-68
2021/05/13 02:16:25;;;;;;;6.00;2.85;;;;;;;;;;5109074;28;20488;-68
2021/05/13 02:18:51;;;;;;;5.90;3.17;;;;;;;;;;5109089;28;20046;-68
2021/05/13 02:21:17;;;;;;;5.20;2.72;;;;;;;;;;5108617;28;20020;-68
2021/05/13 02:27:06;;;;;;;4.22;2.47;;;;;;;;;;5110708;27;20438;-69
2021/05/13 02:31:16;;;;;;;5.93;2.55;;;;;;;;;;5110408;27;20433;-68
2021/05/13 02:33:42;;;;;;;5.60;2.53;;;;;;;;;;5110509;28;20028;-69
2021/05/13 02:36:08;;;;;;;7.85;2.75;;;;;;;;;;5108678;28;20055;-69
2021/05/13 02:38:38;;;;;;;4.88;2.50;;;;;;;;;;5110343;28;20027;-70
2021/05/13 02:43:15;;;;;;;4.53;2.63;;;;;;;;;;5110158;27;20386;-68
2021/05/13 02:45:41;;;;;;;6.18;2.70;;;;;;;;;;5110586;28;20027;-68
2021/05/13 02:49:57;;;;;;;4.95;3.13;;;;;;;;;;5110250;27;20385;-68
2021/05/13 02:52:23;;;;;;;7.70;2.97;;;;;;;;;;5109164;28;20024;-69
2021/05/13 02:54:49;;;;;;;5.10;2.65;;;;;;;;;;5110431;28;20028;-69
2021/05/13 02:57:16;;;;;;;7.65;3.45;;;;;;;;;;5110026;28;20019;-69
2021/05/13 03:03:52;;;;;;;6.18;2.67;;;;;;;;;;5109989;27;20752;-69
2021/05/13 03:06:18;;;;;;;8.48;3.30;;;;;;;;;;5110665;28;20024;-69
2021/05/13 03:11:58;;;;;;;4.65;2.55;;;;;;;;;;5110073;27;20434;-69
2021/05/13 03:16:08;;;;;;;4.82;2.90;;;;;;;;;;5110476;27;20381;-69
2021/05/13 03:21:14;;;;;;;8.50;3.08;;;;;;;;;;5069950;28;20778;-68
2021/05/13 03:23:54;;;;;;;4.38;2.60;;;;;;;;;;5068439;28;20029;-68
2021/05/13 03:26:30;;;;;;;8.48;2.92;;;;;;;;;;5070018;28;20025;-68
2021/05/13 03:28:56;;;;;;;4.47;2.55;;;;;;;;;;5070019;28;20029;-69
2021/05/13 03:31:22;;;;;;;6.05;2.75;;;;;;;;;;5068115;28;20025;-69
2021/05/13 03:33:49;;;;;;;7.90;2.45;;;;;;;;;;5068394;28;20020;-69
2021/05/13 03:36:15;;;;;;;5.88;2.70;;;;;;;;;;5069726;28;20376;-70
2021/05/13 03:38:41;;;;;;;8.90;3.38;;;;;;;;;;5067861;28;20447;-70
2021/05/13 03:44:09;;;;;;;7.40;3.95;;;;;;;;;;5110481;27;20969;-69
2021/05/13 03:46:35;;;;;;;8.05;3.33;;;;;;;;;;5110207;28;20081;-69
2021/05/13 03:52:58;;;;;;;5.30;3.15;;;;;;;;;;5110038;27;20381;-69
2021/05/13 03:57:33;;;;;;;6.97;2.75;;;;;;;;;;5110449;27;20430;-69
2021/05/13 04:00:04;;;;;;;6.82;2.67;;;;;;;;;;5110007;28;20092;-69
2021/05/13 04:04:46;;;;;;;5.35;2.60;;;;;;;;;;5110491;27;20169;-69
2021/05/13 04:07:12;;;;;;;4.40;2.47;;;;;;;;;;5108897;28;20078;-68
2021/05/13 04:09:38;;;;;;;4.47;2.67;;;;;;;;;;5110599;28;20095;-69
2021/05/13 04:13:28;;;;;;;9.57;3.50;;;;;;;;;;5069580;28;20445;-69
2021/05/13 04:18:50;;;;;;;6.60;3.08;;;;;;;;;;5131050;27;20327;-69
2021/05/13 04:21:16;;;;;;;10.60;3.30;;;;;;;;;;5110003;28;20042;-69
2021/05/13 04:23:42;;;;;;;6.75;3.58;;;;;;;;;;5092676;28;20032;-69
2021/05/13 04:26:08;;;;;;;9.68;4.13;;;;;;;;;;5110761;28;20047;-69
2021/05/13 04:28:34;;;;;;;9.75;4.35;;;;;;;;;;5110768;28;20020;-69
2021/05/13 04:34:04;;;;;;;9.95;4.75;;;;;;;;;;5172096;27;20102;-69
2021/05/13 04:36:30;;;;;;;9.60;3.63;;;;;;;;;;5133289;27;20023;-69
2021/05/13 04:38:56;;;;;;;9.93;3.60;;;;;;;;;;5151564;27;20483;-70
2021/05/13 04:41:22;;;;;;;9.25;4.28;;;;;;;;;;5151205;27;20436;-70
2021/05/13 04:43:49;;;;;;;6.82;2.92;;;;;;;;;;5151580;27;20435;-70
2021/05/13 04:46:16;;;;;;;6.75;3.15;;;;;;;;;;5151714;27;20094;-70
2021/05/13 04:50:03;;;;;;;6.43;3.35;;;;;;;;;;5110761;27;20384;-70
2021/05/13 04:54:17;;;;;;;7.43;3.60;;;;;;;;;;5110437;27;20898;-68
2021/05/13 04:58:31;;;;;;;5.07;2.60;;;;;;;;;;5110476;27;20385;-69
2021/05/13 05:00:57;;;;;;;5.78;1.92;;;;;;;;;;5110405;28;20027;-69
2021/05/13 05:06:03;;;;;;;6.40;2.95;;;;;;;;;;5110713;27;20442;-68
2021/05/13 05:09:47;;;;;;;6.93;2.95;;;;;;;;;;5110132;27;20389;-68
2021/05/13 05:15:58;;;;;;;8.18;2.70;;;;;;;;;;5110428;27;20168;-69
2021/05/13 05:18:25;;;;;;;6.70;2.70;;;;;;;;;;5110082;28;20016;-69
2021/05/13 05:20:52;;;;;;;5.35;2.47;;;;;;;;;;5109072;28;20032;-69
2021/05/13 05:27:51;;;;;;;6.65;3.10;;;;;;;;;;5110496;27;20730;-69
2021/05/13 05:30:17;;;;;;;6.57;3.40;;;;;;;;;;5109978;28;20043;-69
2021/05/13 05:32:43;;;;;;;7.40;2.53;;;;;;;;;;5110450;28;20447;-69
2021/05/13 05:37:22;;;;;;;8.73;3.53;;;;;;;;;;5110046;27;20892;-69
2021/05/13 05:39:48;;;;;;;5.28;2.50;;;;;;;;;;5109143;28;20110;-69
2021/05/13 05:43:10;;;;;;;9.85;4.13;;;;;;;;;;5085458;28;20462;-69
2021/05/13 05:45:37;;;;;;;6.00;3.17;;;;;;;;;;5068486;28;20122;-69
2021/05/13 05:48:04;;;;;;;9.98;3.80;;;;;;;;;;5069864;28;20024;-68
2021/05/13 05:50:35;;;;;;;5.88;2.50;;;;;;;;;;5069837;28;20459;-69
2021/05/13 05:53:01;;;;;;;6.90;3.17;;;;;;;;;;5069367;28;20411;-69
2021/05/13 05:55:28;;;;;;;3.75;2.13;;;;;;;;;;5069693;28;20052;-69
2021/05/13 05:57:54;;;;;;;5.05;2.42;;;;;;;;;;5069642;28;20025;-69
2021/05/13 06:00:20;;;;;;;10.23;3.10;;;;;;;;;;5067897;28;20021;-69
2021/05/13 06:02:47;;;;;;;5.82;2.28;;;;;;;;;;5068186;28;20040;-70
2021/05/13 06:05:51;;;;;;;5.43;2.40;;;;;;;;;;5085383;28;20392;-71
2021/05/13 06:10:21;;;;;;;5.60;1.95;;;;;;;;;;5130952;27;20448;-69
2021/05/13 06:13:35;;;;;;;6.18;2.35;;;;;;;;;;5110058;27;20442;-69
2021/05/13 06:17:09;;;;;;;6.82;2.40;;;;;;;;;;5110478;27;20381;-69
2021/05/13 06:19:35;;;;;;;4.13;2.17;;;;;;;;;;5110041;28;20544;-69
2021/05/13 06:23:35;;;;;;;5.75;2.10;;;;;;;;;;5110407;27;20384;-69
2021/05/13 06:26:01;;;;;;;4.50;2.05;;;;;;;;;;5110637;28;20031;-69
2021/05/13 06:30:40;;;;;;;4.90;2.17;;;;;;;;;;5110437;27;20389;-69
2021/05/13 06:33:06;;;;;;;2.38;1.67;;;;;;;;;;5110414;28;20107;-69
2021/05/13 06:35:35;;;;;;;4.53;1.90;;;;;;;;;;5110010;28;20024;-70
2021/05/13 06:38:01;;;;;;;4.75;1.90;;;;;;;;;;5109047;28;20085;-69
2021/05/13 06:41:33;;;;;;;8.98;2.67;;;;;;;;;;5110004;27;20385;-69
2021/05/13 06:43:59;;;;;;;4.90;2.10;;;;;;;;;;5109164;28;20140;-69
2021/05/13 06:51:22;;;;;;;4.10;1.95;;;;;;;;;;5110457;27;20446;-69
2021/05/13 06:55:35;;;;;;;4.82;1.85;;;;;;;;;;5110042;27;20380;-71
2021/05/13 06:58:01;;;;;;;4.45;1.73;;;;;;;;;;5110440;28;20031;-70
2021/05/13 07:00:28;;;;;;;5.82;1.77;;;;;;;;;;5109050;28;20434;-70
2021/05/13 07:02:54;;;;;;;3.83;1.45;;;;;;;;;;5109997;28;20032;-70
2021/05/13 07:07:27;;;;;;;3.20;2.03;;;;;;;;;;5131266;27;20168;-69
2021/05/13 07:10:20;;;;;;;6.78;1.65;;;;;;;;;;5109989;27;20445;-70
2021/05/13 07:12:47;;;;;;;2.72;1.60;;;;;;;;;;5110422;28;20077;-71
2021/05/13 07:15:39;;;;;;;3.72;1.45;;;;;;;;;;5110501;27;20381;-70
2021/05/13 07:18:11;;;;;;;2.97;1.45;;;;;;;;;;5110097;28;20038;-69
2021/05/13 07:20:37;;;;;;;5.32;1.95;;;;;;;;;;5110506;28;20408;-70
2021/05/13 07:23:05;;;;;;;3.33;1.27;;;;;;;;;;5110029;28;20031;-69
2021/05/13 07:27:32;;;;;;;4.03;1.48;;;;;;;;;;5110751;27;20430;-69
2021/05/13 07:31:56;;;;;;;3.25;1.02;;;;;;;;;;5110130;27;20385;-70
2021/05/13 07:34:22;;;;;;;1.38;1.08;;;;;;;;;;5110412;28;20031;-72
2021/05/13 07:36:48;;;;;;;1.80;0.85;;;;;;;;;;5109132;28;20440;-71
2021/05/13 07:39:15;;;;;;;2.33;1.02;;;;;;;;;;5108693;28;20024;-69
2021/05/13 07:41:41;;;;;;;1.90;1.10;;;;;;;;;;5110235;28;20027;-69
2021/05/13 07:44:08;;;;;;;2.67;0.95;;;;;;;;;;5108591;28;20093;-70
2021/05/13 07:46:37;;;;;;;2.42;1.10;;;;;;;;;;5109028;28;20024;-70
2021/05/13 07:49:11;;;;;;;1.95;0.93;;;;;;;;;;5110651;27;20437;-70
2021/05/13 07:51:37;;;;;;;2.50;1.08;;;;;;;;;;5110019;28;20032;-70
2021/05/13 07:54:04;;;;;;;1.63;1.02;;;;;;;;;;5110474;28;20031;-70
2021/05/13 07:56:30;;;;;;;3.38;0.95;;;;;;;;;;5110311;28;20024;-70
2021/05/13 07:58:56;;;;;;;3.67;0.98;;;;;;;;;;5109802;28;20026;-71
2021/05/13 08:01:23;;;;;;;2.88;1.08;;;;;;;;;;5110155;28;20031;-71
2021/05/13 08:03:49;;;;;;;4.88;1.70;;;;;;;;;;5110276;28;20032;-70
2021/05/13 08:06:15;;;;;;;4.40;1.00;;;;;;;;;;5108574;28;20504;-71
2021/05/13 08:10:51;;;;;;;2.13;0.90;;;;;;;;;;5069909;28;20424;-70
2021/05/13 08:13:17;;;;;;;1.63;0.80;;;;;;;;;;5069509;28;20028;-71
2021/05/13 08:15:44;;;;;;;2.42;1.08;;;;;;;;;;5068575;28;20017;-71
2021/05/13 08:18:10;;;;;;;2.33;0.98;;;;;;;;;;5069856;28;20112;-70
2021/05/13 08:20:36;;;;;;;1.90;1.00;;;;;;;;;;5069416;28;20025;-70
2021/05/13 08:23:02;;;;;;;1.77;0.75;;;;;;;;;;5069776;28;20051;-70
2021/05/13 08:25:29;;;;;;;5.35;1.13;;;;;;;;;;5069740;28;20029;-71
2021/05/13 08:28:25;;;;;;;2.63;0.90;;;;;;;;;;5110837;27;20396;-71
2021/05/13 08:30:51;;;;;;;3.47;1.05;;;;;;;;;;5110557;28;20028;-71
2021/05/13 08:33:17;;;;;;;1.77;0.73;;;;;;;;;;5110487;28;20023;-71
2021/05/13 08:35:43;;;;;;;4.10;1.30;;;;;;;;;;5110032;28;20019;-71
2021/05/13 08:38:10;;;;;;;2.05;0.82;;;;;;;;;;5109000;28;20034;-71
2021/05/13 08:42:14;;;;;;;3.63;1.00;;;;;;;;;;5110104;27;20392;-70
2021/05/13 08:44:43;;;;;;;6.82;1.05;;;;;;;;;;5110236;28;20028;-70
2021/05/13 08:47:58;;;;;;;2.40;0.93;;;;;;;;;;5110395;27;20389;-69
2021/05/13 08:50:24;;;;;;;2.67;0.80;;;;;;;;;;5110562;28;20028;-71
2021/05/13 08:52:50;;;;;;;3.20;1.00;;;;;;;;;;5109033;28;20085;-70
2021/05/13 08:55:16;;;;;;;1.95;0.80;;;;;;;;;;5108629;28;20478;-71
2021/05/13 08:57:42;;;;;;;1.42;0.82;;;;;;;;;;5108926;28;20026;-70
2021/05/13 09:01:03;;;;;;;2.67;1.00;;;;;;;;;;5110396;27;20977;-71
2021/05/13 09:03:39;;;;;;;3.75;1.10;;;;;;;;;;5110084;28;20023;-71
2021/05/13 09:06:06;;;;;;;4.00;1.00;;;;;;;;;;5110500;28;20020;-71
2021/05/13 09:08:32;;;;;;;2.22;0.90;;;;;;;;;;5108829;28;20106;-71
2021/05/13 09:11:12;;;;;;;4.95;1.88;;;;;;;;;;5110225;28;20034;-71
2021/05/13 09:13:39;;;;;;;2.97;1.13;;;;;;;;;;5108866;28;20024;-71
2021/05/13 09:16:26;;;;;;;2.75;0.90;;;;;;;;;;5108537;28;20518;-70
2021/05/13 09:18:52;;;;;;;3.08;1.13;;;;;;;;;;5108654;28;20016;-71
2021/05/13 09:21:18;;;;;;;3.88;1.10;;;;;;;;;;5110168;28;20557;-71
2021/05/13 09:23:45;;;;;;;5.80;0.90;;;;;;;;;;5109651;28;20058;-71
2021/05/13 09:26:18;;;;;;;1.60;1.08;;;;;;;;;;5109951;28;20080;-72
2021/05/13 09:28:46;;;;;;;3.20;1.08;;;;;;;;;;5108785;28;20027;-71
2021/05/13 09:31:31;;;;;;;2.33;1.27;;;;;;;;;;5108121;28;20024;-71
2021/05/13 09:34:03;;;;;;;2.28;0.80;;;;;;;;;;5109760;28;20046;-71
2021/05/13 09:36:29;;;;;;;3.30;1.30;;;;;;;;;;5109708;28;20028;-71
2021/05/13 09:39:58;;;;;;;5.47;0.77;;;;;;;;;;5110379;27;20380;-71
2021/05/13 09:42:24;;;;;;;1.40;0.60;;;;;;;;;;5110459;28;20031;-70
2021/05/13 09:45:02;;;;;;;2.28;0.73;;;;;;;;;;5110101;27;20385;-70
2021/05/13 09:47:28;;;;;;;4.50;1.00;;;;;;;;;;5110565;28;20032;-70
2021/05/13 09:49:57;;;;;;;3.78;0.70;;;;;;;;;;5109217;28;20026;-71
2021/05/13 09:52:42;;;;;;;2.50;0.80;;;;;;;;;;5110080;28;20020;-71
2021/05/13 09:55:16;;;;;;;1.95;0.82;;;;;;;;;;5110242;28;20022;-70
2021/05/13 09:57:48;;;;;;;1.50;0.70;;;;;;;;;;5110221;28;20019;-70
2021/05/13 10:00:29;;;;;;;1.98;0.70;;;;;;;;;;5108775;28;20085;-70
2021/05/13 10:02:56;;;;;;;6.72;1.10;;;;;;;;;;5110069;28;20073;-70
2021/05/13 10:05:22;;;;;;;3.65;0.82;;;;;;;;;;5109797;28;20028;-70
2021/05/13 10:07:48;;;;;;;2.10;0.82;;;;;;;;;;5110109;28;20427;-71
2021/05/13 10:10:14;;;;;;;2.75;0.73;;;;;;;;;;5109914;28;20112;-71
2021/05/13 10:12:42;;;;;;;1.40;0.80;;;;;;;;;;5108342;28;20047;-70
2021/05/13 10:16:40;;;;;;;2.92;1.00;;;;;;;;;;5110394;27;20385;-70
2021/05/13 10:19:08;;;;;;;4.00;0.98;;;;;;;;;;5109837;28;20541;-70
2021/05/13 10:21:36;;;;;;;1.50;0.70;;;;;;;;;;5108980;28;20020;-71
2021/05/13 10:24:04;;;;;;;2.50;0.60;;;;;;;;;;5110350;28;20020;-71
2021/05/13 10:26:32;;;;;;;1.45;0.80;;;;;;;;;;5108721;28;20402;-71
2021/05/13 10:28:58;;;;;;;2.03;0.90;;;;;;;;;;5108942;28;20020;-71
2021/05/13 10:31:38;;;;;;;2.35;0.73;;;;;;;;;;5110221;28;20044;-71
2021/05/13 10:34:04;;;;;;;1.83;0.70;;;;;;;;;;5108520;28;20098;-71
2021/05/13 10:36:31;;;;;;;1.92;1.00;;;;;;;;;;5110125;28;20123;-71
2021/05/13 10:39:10;;;;;;;4.10;1.27;;;;;;;;;;5109990;28;20020;-71
2021/05/13 10:41:40;;;;;;;5.22;1.00;;;;;;;;;;5108308;28;20058;-71
2021/05/13 10:44:10;;;;;;;3.58;1.00;;;;;;;;;;5108653;28;20387;-70
2021/05/13 10:46:36;;;;;;;3.20;0.85;;;;;;;;;;5109990;28;20488;-71
2021/05/13 10:49:15;;;;;;;6.88;1.52;;;;;;;;;;5109535;28;20020;-71
2021/05/13 10:51:41;;;;;;;2.90;1.13;;;;;;;;;;5109756;28;20163;-70
2021/05/13 10:54:08;;;;;;;2.38;0.90;;;;;;;;;;5109296;28;20085;-71
2021/05/13 10:56:35;;;;;;;3.45;0.90;;;;;;;;;;5109721;28;20042;-71
2021/05/13 11:01:32;;;;;;;4.30;0.93;;;;;;;;;;5110172;27;20735;-71
2021/05/13 11:04:17;;;;;;;2.55;1.02;;;;;;;;;;5110693;28;20024;-70
2021/05/13 11:06:44;;;;;;;3.28;0.82;;;;;;;;;;5108982;28;20020;-71
2021/05/13 11:09:46;;;;;;;2.30;0.70;;;;;;;;;;5110022;27;20410;-70
2021/05/13 11:12:22;;;;;;;3.45;0.70;;;;;;;;;;5109079;28;20031;-70
2021/05/13 11:15:13;;;;;;;2.55;0.75;;;;;;;;;;5110384;28;20023;-69
2021/05/13 11:17:44;;;;;;;4.20;0.68;;;;;;;;;;5110325;28;20589;-70
2021/05/13 11:21:48;;;;;;;5.97;0.82;;;;;;;;;;5110504;27;20795;-70
2021/05/13 11:24:14;;;;;;;3.55;1.10;;;;;;;;;;5108961;28;20031;-70
2021/05/13 11:26:40;;;;;;;2.95;1.05;;;;;;;;;;5109022;28;20555;-71
2021/05/13 11:29:06;;;;;;;5.65;1.10;;;;;;;;;;5108989;28;20113;-71
2021/05/13 11:33:25;;;;;;;2.83;0.80;;;;;;;;;;5110462;27;20636;-71
2021/05/13 11:35:51;;;;;;;3.08;0.77;;;;;;;;;;5110769;28;20426;-72
2021/05/13 11:38:22;;;;;;;3.92;1.15;;;;;;;;;;5108639;28;20491;-71
2021/05/13 11:40:49;;;;;;;3.25;1.10;;;;;;;;;;5110535;28;20024;-71
2021/05/13 11:43:20;;;;;;;2.53;0.90;;;;;;;;;;5110071;28;20031;-71
2021/05/13 11:45:47;;;;;;;3.53;1.08;;;;;;;;;;5110170;28;20016;-70
2021/05/13 11:48:22;;;;;;;5.93;1.10;;;;;;;;;;5108868;28;20034;-72
2021/05/13 11:50:49;;;;;;;2.47;0.80;;;;;;;;;;5108389;28;20028;-70
2021/05/13 11:53:16;;;;;;;3.60;1.13;;;;;;;;;;5108631;28;20126;-69
2021/05/13 11:55:43;;;;;;;5.13;1.02;;;;;;;;;;5109990;28;20051;-69
2021/05/13 11:58:09;;;;;;;5.00;1.17;;;;;;;;;;5109640;28;20429;-72
2021/05/13 12:02:23;;;;;;;2.78;0.90;;;;;;;;;;5110635;27;20380;-70
2021/05/13 12:07:22;;;;;;;3.20;0.80;;;;;;;;;;5110506;27;20430;-71
2021/05/13 12:09:49;;;;;;;2.92;1.35;;;;;;;;;;5110280;28;20480;-71
2021/05/13 12:12:22;;;;;;;4.07;0.70;;;;;;;;;;5110182;28;20370;-70
2021/05/13 12:14:48;;;;;;;3.63;1.13;;;;;;;;;;5110398;28;20016;-70
2021/05/13 12:17:14;;;;;;;3.00;0.73;;;;;;;;;;5108907;28;20030;-71
2021/05/13 12:19:42;;;;;;;5.88;0.60;;;;;;;;;;5108704;28;20136;-70
2021/05/13 12:22:12;;;;;;;4.95;1.10;;;;;;;;;;5110377;28;20026;-70
2021/05/13 12:24:41;;;;;;;9.25;1.55;;;;;;;;;;5108942;28;20443;-70
2021/05/13 12:27:09;;;;;;;6.22;1.00;;;;;;;;;;5108275;28;20044;-71
2021/05/13 12:29:36;;;;;;;3.60;0.85;;;;;;;;;;5108693;28;20107;-72
2021/05/13 12:32:02;;;;;;;2.70;1.30;;;;;;;;;;5110103;28;20024;-72
2021/05/13 12:34:32;;;;;;;11.45;1.58;;;;;;;;;;5109521;28;20016;-71
2021/05/13 12:36:58;;;;;;;7.57;1.58;;;;;;;;;;5108394;28;20387;-71
2021/05/13 12:39:31;;;;;;;5.75;1.15;;;;;;;;;;5110043;28;20088;-71
2021/05/13 12:41:57;;;;;;;6.32;1.20;;;;;;;;;;5108632;28;20016;-71
2021/05/13 12:44:28;;;;;;;3.85;1.10;;;;;;;;;;5109769;28;20024;-71
2021/05/13 12:46:58;;;;;;;4.05;0.63;;;;;;;;;;5109289;28;20028;-71
2021/05/13 12:49:25;;;;;;;7.68;0.93;;;;;;;;;;5109666;28;20016;-71
2021/05/13 12:51:58;;;;;;;4.50;1.00;;;;;;;;;;5108298;28;20043;-71
2021/05/13 12:54:25;;;;;;;4.15;1.60;;;;;;;;;;5107830;28;20020;-71
2021/05/13 12:56:51;;;;;;;6.97;1.20;;;;;;;;;;5109700;28;20400;-71
2021/05/13 12:59:18;;;;;;;2.10;1.10;;;;;;;;;;5108492;28;20028;-71
2021/05/13 13:03:28;;;;;;;3.33;1.20;;;;;;;;;;5110544;27;20393;-70
2021/05/13 13:06:04;;;;;;;4.35;1.30;;;;;;;;;;5109136;28;20476;-70
2021/05/13 13:08:38;;;;;;;3.50;1.02;;;;;;;;;;5108679;28;20077;-72
2021/05/13 13:11:04;;;;;;;2.83;1.10;;;;;;;;;;5110169;28;20032;-71
2021/05/13 13:13:40;;;;;;;2.90;0.88;;;;;;;;;;5110323;28;20561;-71
2021/05/13 13:16:15;;;;;;;3.90;1.27;;;;;;;;;;5108778;28;20032;-71
2021/05/13 13:18:41;;;;;;;2.67;1.13;;;;;;;;;;5108977;28;20054;-71
2021/05/13 13:21:12;;;;;;;3.05;1.00;;;;;;;;;;5108656;28;20107;-71
2021/05/13 13:23:38;;;;;;;3.90;1.00;;;;;;;;;;5109653;28;20031;-71
2021/05/13 13:26:07;;;;;;;9.02;1.42;;;;;;;;;;5108690;28;20026;-72
2021/05/13 13:28:34;;;;;;;4.97;0.95;;;;;;;;;;5109886;28;20047;-71
2021/05/13 13:31:04;;;;;;;3.95;1.05;;;;;;;;;;5108105;28;20081;-71
2021/05/13 13:33:32;;;;;;;2.08;0.98;;;;;;;;;;5109798;28;20020;-71
2021/05/13 13:35:58;;;;;;;3.15;1.33;;;;;;;;;;5108341;28;20190;-71
2021/05/13 13:38:25;;;;;;;3.63;0.95;;;;;;;;;;5110077;28;20028;-71
2021/05/13 13:40:52;;;;;;;2.17;0.80;;;;;;;;;;5109573;28;20149;-71
2021/05/13 13:43:20;;;;;;;3.65;1.15;;;;;;;;;;5107983;28;20086;-71
2021/05/13 13:45:46;;;;;;;3.53;1.02;;;;;;;;;;5109593;28;20027;-70
2021/05/13 13:48:15;;;;;;;3.88;1.13;;;;;;;;;;5108256;28;20142;-70
2021/05/13 13:50:42;;;;;;;5.15;1.25;;;;;;;;;;5107593;28;20121;-71
2021/05/13 13:53:09;;;;;;;12.00;2.40;;;;;;;;;;5107895;28;20114;-71
2021/05/13 13:57:48;;;;;;;7.82;1.63;;;;;;;;;;5110170;27;20445;-70
2021/05/13 14:00:14;;;;;;;6.65;1.50;;;;;;;;;;5108869;28;20069;-70
2021/05/13 14:02:42;;;;;;;4.10;1.20;;;;;;;;;;5110320;28;20050;-70
2021/05/13 14:05:08;;;;;;;6.97;1.45;;;;;;;;;;5110018;28;20399;-71
2021/05/13 14:07:35;;;;;;;3.88;1.30;;;;;;;;;;5110245;28;20473;-70
2021/05/13 14:10:02;;;;;;;5.22;1.00;;;;;;;;;;5108935;28;20063;-71
2021/05/13 14:12:28;;;;;;;2.03;0.93;;;;;;;;;;5108487;28;20493;-70
2021/05/13 14:14:54;;;;;;;1.45;0.75;;;;;;;;;;5110089;28;20102;-70
2021/05/13 14:17:22;;;;;;;5.53;1.10;;;;;;;;;;5110057;28;20036;-70
2021/05/13 14:19:48;;;;;;;5.07;0.82;;;;;;;;;;5109662;28;20034;-71
2021/05/13 14:22:14;;;;;;;4.10;1.55;;;;;;;;;;5109935;28;20049;-71
2021/05/13 14:24:41;;;;;;;4.25;1.00;;;;;;;;;;5108703;28;20062;-71
2021/05/13 14:27:07;;;;;;;3.10;1.02;;;;;;;;;;5108178;28;20020;-71
2021/05/13 14:29:33;;;;;;;2.08;0.80;;;;;;;;;;5109890;28;20020;-71
2021/05/13 14:31:59;;;;;;;1.35;0.90;;;;;;;;;;5109697;28;20769;-71
2021/05/13 14:34:26;;;;;;;2.78;1.00;;;;;;;;;;5109789;28;20028;-70
2021/05/13 14:36:52;;;;;;;3.55;1.30;;;;;;;;;;5108524;28;20123;-71
2021/05/13 14:39:19;;;;;;;2.83;0.90;;;;;;;;;;5109228;28;20024;-72
2021/05/13 14:41:45;;;;;;;4.57;1.02;;;;;;;;;;5108352;28;20027;-72
2021/05/13 14:44:11;;;;;;;1.98;0.80;;;;;;;;;;5109691;28;20074;-71
2021/05/13 14:46:37;;;;;;;2.88;1.00;;;;;;;;;;5107570;28;20024;-72
2021/05/13 14:50:04;;;;;;;2.47;1.15;;;;;;;;;;5109560;28;20019;-71
2021/05/13 14:51:59;;;;;;;3.58;0.90;;;;;;;;;;5104428;27;20555;-71
2021/05/13 14:54:25;;;;;;;3.33;0.85;;;;;;;;;;5109106;28;20016;-72
2021/05/13 14:57:00;;;;;;;1.52;0.60;;;;;;;;;;5109190;28;20043;-72
2021/05/13 14:59:27;;;;;;;1.65;0.82;;;;;;;;;;5108062;28;20501;-71
2021/05/13 15:01:57;;;;;;;2.67;0.98;;;;;;;;;;5107465;28;20044;-70
2021/05/13 15:04:24;;;;;;;3.85;1.15;;;;;;;;;;5109318;28;20379;-71
2021/05/13 15:06:50;;;;;;;2.20;0.43;;;;;;;;;;5107689;28;20425;-70
2021/05/13 15:09:16;;;;;;;3.30;0.75;;;;;;;;;;5094587;28;20027;-71
2021/05/13 15:11:43;;;;;;;2.97;0.70;;;;;;;;;;5095445;28;20024;-71
2021/05/13 15:14:09;;;;;;;3.08;0.55;;;;;;;;;;5094262;28;20020;-70
2021/05/13 15:16:35;;;;;;;3.17;0.85;;;;;;;;;;5095325;28;20028;-71
2021/05/13 15:19:01;;;;;;;2.38;0.70;;;;;;;;;;5095363;28;20023;-72
2021/05/13 15:21:27;;;;;;;3.60;0.80;;;;;;;;;;5093572;28;20024;-70
2021/05/13 15:23:54;;;;;;;2.60;0.60;;;;;;;;;;5093968;28;20020;-70
2021/05/13 15:26:20;;;;;;;4.55;0.70;;;;;;;;;;5093917;28;20065;-71
2021/05/13 15:28:47;;;;;;;1.65;0.38;;;;;;;;;;5093443;28;20050;-70
2021/05/13 15:31:13;;;;;;;2.28;0.57;;;;;;;;;;5095060;28;20101;-71
2021/05/13 15:33:39;;;;;;;3.38;0.80;;;;;;;;;;5093800;28;20028;-70
2021/05/13 15:36:05;;;;;;;0.82;0.30;;;;;;;;;;5093386;28;20028;-70
2021/05/13 15:38:32;;;;;;;3.90;0.70;;;;;;;;;;5093711;28;20439;-71
2021/05/13 15:40:58;;;;;;;4.50;0.30;;;;;;;;;;5094919;28;20016;-71
2021/05/13 15:43:25;;;;;;;4.35;0.80;;;;;;;;;;5093121;28;20024;-71
2021/05/13 15:45:51;;;;;;;3.60;0.50;;;;;;;;;;5093364;28;20066;-70
2021/05/13 15:48:17;;;;;;;2.35;0.60;;;;;;;;;;5093446;28;20110;-71
2021/05/13 15:50:44;;;;;;;2.65;0.80;;;;;;;;;;5093027;28;20024;-71
2021/05/13 15:53:10;;;;;;;2.50;0.50;;;;;;;;;;5094656;28;20034;-71
2021/05/13 15:55:37;;;;;;;0.77;0.40;;;;;;;;;;5094424;28;20054;-71
2021/05/13 15:58:04;;;;;;;1.75;0.50;;;;;;;;;;5094324;28;20077;-71
2021/05/13 16:00:30;;;;;;;1.40;0.50;;;;;;;;;;5094531;28;20013;-71
2021/05/13 16:02:57;;;;;;;22.67;1.98;;;;;;;;;;5094526;28;20032;-71
2021/05/13 16:05:24;;;;;;;1.60;0.50;;;;;;;;;;5092765;28;20028;-72
2021/05/13 16:07:50;;;;;;;0.22;0.20;;;;;;;;;;5094361;28;20034;-71
2021/05/13 16:10:18;;;;;;;2.90;0.47;;;;;;;;;;5094315;28;20048;-71
2021/05/13 16:12:50;;;;;;;3.88;0.60;;;;;;;;;;5092441;28;20024;-72
2021/05/13 16:15:16;;;;;;;0.17;0.10;;;;;;;;;;5093172;28;20096;-71
2021/05/13 16:17:42;;;;;;;3.08;0.63;;;;;;;;;;5093814;28;20434;-71
2021/05/13 16:20:08;;;;;;;1.60;0.82;;;;;;;;;;5091885;28;20031;-70
2021/05/13 16:22:35;;;;;;;3.17;0.60;;;;;;;;;;5094060;28;20024;-71
2021/05/13 16:25:01;;;;;;;1.55;0.68;;;;;;;;;;5093703;28;20070;-69
2021/05/13 16:27:27;;;;;;;1.17;0.30;;;;;;;;;;5093925;28;20099;-70
2021/05/13 16:29:53;;;;;;;2.33;0.73;;;;;;;;;;5093886;28;20020;-70
2021/05/13 16:32:19;;;;;;;0.32;0.20;;;;;;;;;;5093359;28;20024;-70
2021/05/13 16:34:46;;;;;;;2.40;0.57;;;;;;;;;;5094020;28;20422;-69
2021/05/13 16:37:12;;;;;;;1.10;0.30;;;;;;;;;;5092796;28;20032;-70
2021/05/13 16:39:38;;;;;;;2.15;0.50;;;;;;;;;;5093349;28;20462;-70
2021/05/13 16:42:05;;;;;;;5.60;0.93;;;;;;;;;;5092546;28;20027;-70
2021/05/13 16:44:31;;;;;;;1.33;0.77;;;;;;;;;;5092381;28;20028;-70
2021/05/13 16:46:58;;;;;;;0.82;0.30;;;;;;;;;;5093298;28;20032;-71
2021/05/13 16:49:25;;;;;;;4.35;0.90;;;;;;;;;;5092362;28;20422;-71
2021/05/13 16:52:37;;;;;;;4.13;0.65;;;;;;;;;;5110392;27;20321;-69
2021/05/13 16:55:04;;;;;;;4.32;0.60;;;;;;;;;;5110963;28;20051;-70
2021/05/13 16:57:30;;;;;;;1.90;0.45;;;;;;;;;;5110484;28;20102;-70
2021/05/13 16:59:57;;;;;;;1.92;0.40;;;;;;;;;;5109944;28;20016;-70